sensor_id;sensor_type;location;lat;lon;timestamp;P1;durP1;ratioP1;P2;durP2;ratioP2
5684;SDS011;2865;53.114;9.130;2023-03-01T00:01:05;12.20;;;8.50;;
5684;SDS011;2865;53.114;9.130;2023-03-01T00:03:29;8.53;;;7.73;;
5684;SDS011;2865;53.114;9.130;2023-03-01T00:05:54;7.77;;;7.13;;
5684;SDS011;2865;53.114;9.130;2023-03-01T00:08:20;6.83;;;6.23;;
5684;SDS011;2865;53.114;9.130;2023-03-01T00:10:45;7.90;;;7.23;;
5684;SDS011;2865;53.114;9.130;2023-03-01T00:13:10;7.50;;;6.90;;
5684;SDS011;2865;53.114;9.130;2023-03-01T00:15:38;7.97;;;7.17;;
5684;SDS011;2865;53.114;9.130;2023-03-01T00:18:02;11.10;;;7.78;;
5684;SDS011;2865;53.114;9.130;2023-03-01T00:20:28;11.33;;;7.97;;
5684;SDS011;2865;53.114;9.130;2023-03-01T00:22:53;6.40;;;5.80;;
5684;SDS011;2865;53.114;9.130;2023-03-01T00:25:18;7.50;;;6.90;;
5684;SDS011;2865;53.114;9.130;2023-03-01T00:27:44;8.50;;;7.63;;
5684;SDS011;2865;53.114;9.130;2023-03-01T00:30:10;9.30;;;7.83;;
5684;SDS011;2865;53.114;9.130;2023-03-01T00:32:36;10.13;;;8.35;;
5684;SDS011;2865;53.114;9.130;2023-03-01T00:35:02;9.60;;;8.03;;
5684;SDS011;2865;53.114;9.130;2023-03-01T00:37:28;14.33;;;8.83;;
5684;SDS011;2865;53.114;9.130;2023-03-01T00:39:53;12.30;;;9.70;;
5684;SDS011;2865;53.114;9.130;2023-03-01T00:42:18;13.40;;;10.03;;
5684;SDS011;2865;53.114;9.130;2023-03-01T00:44:44;15.60;;;10.90;;
5684;SDS011;2865;53.114;9.130;2023-03-01T00:47:09;11.90;;;10.60;;
5684;SDS011;2865;53.114;9.130;2023-03-01T00:49:34;13.40;;;10.40;;
5684;SDS011;2865;53.114;9.130;2023-03-01T00:52:00;14.97;;;10.80;;
5684;SDS011;2865;53.114;9.130;2023-03-01T00:54:25;13.10;;;10.30;;
5684;SDS011;2865;53.114;9.130;2023-03-01T00:56:51;13.60;;;9.73;;
5684;SDS011;2865;53.114;9.130;2023-03-01T00:59:16;14.43;;;10.37;;
5684;SDS011;2865;53.114;9.130;2023-03-01T01:01:42;11.80;;;9.60;;
5684;SDS011;2865;53.114;9.130;2023-03-01T01:04:08;8.70;;;7.87;;
5684;SDS011;2865;53.114;9.130;2023-03-01T01:06:33;11.20;;;9.47;;
5684;SDS011;2865;53.114;9.130;2023-03-01T01:08:58;13.03;;;9.23;;
5684;SDS011;2865;53.114;9.130;2023-03-01T01:11:24;9.50;;;8.50;;
5684;SDS011;2865;53.114;9.130;2023-03-01T01:13:49;9.60;;;8.60;;
5684;SDS011;2865;53.114;9.130;2023-03-01T01:16:14;10.10;;;8.13;;
5684;SDS011;2865;53.114;9.130;2023-03-01T01:18:39;8.60;;;7.70;;
5684;SDS011;2865;53.114;9.130;2023-03-01T01:21:06;12.50;;;9.20;;
5684;SDS011;2865;53.114;9.130;2023-03-01T01:23:30;9.37;;;8.47;;
5684;SDS011;2865;53.114;9.130;2023-03-01T01:25:56;9.87;;;8.90;;
5684;SDS011;2865;53.114;9.130;2023-03-01T01:28:21;13.87;;;8.90;;
5684;SDS011;2865;53.114;9.130;2023-03-01T01:30:47;10.87;;;8.73;;
5684;SDS011;2865;53.114;9.130;2023-03-01T01:33:12;9.70;;;8.70;;
5684;SDS011;2865;53.114;9.130;2023-03-01T01:35:37;11.60;;;9.27;;
5684;SDS011;2865;53.114;9.130;2023-03-01T01:38:03;11.07;;;8.17;;
5684;SDS011;2865;53.114;9.130;2023-03-01T01:40:28;9.57;;;8.77;;
5684;SDS011;2865;53.114;9.130;2023-03-01T01:42:53;10.63;;;8.23;;
5684;SDS011;2865;53.114;9.130;2023-03-01T01:45:29;9.43;;;8.50;;
5684;SDS011;2865;53.114;9.130;2023-03-01T01:48:02;9.55;;;8.55;;
5684;SDS011;2865;53.114;9.130;2023-03-01T01:50:26;10.68;;;9.10;;
5684;SDS011;2865;53.114;9.130;2023-03-01T01:52:52;9.90;;;8.90;;
5684;SDS011;2865;53.114;9.130;2023-03-01T01:55:18;11.97;;;8.67;;
5684;SDS011;2865;53.114;9.130;2023-03-01T01:57:45;9.73;;;8.73;;
5684;SDS011;2865;53.114;9.130;2023-03-01T02:00:13;10.93;;;8.87;;
5684;SDS011;2865;53.114;9.130;2023-03-01T02:02:38;11.18;;;10.02;;
5684;SDS011;2865;53.114;9.130;2023-03-01T02:05:09;13.67;;;9.70;;
5684;SDS011;2865;53.114;9.130;2023-03-01T02:07:47;9.23;;;8.32;;
5684;SDS011;2865;53.114;9.130;2023-03-01T02:10:12;12.10;;;9.30;;
5684;SDS011;2865;53.114;9.130;2023-03-01T02:12:38;18.43;;;9.97;;
5684;SDS011;2865;53.114;9.130;2023-03-01T02:15:03;10.47;;;9.47;;
5684;SDS011;2865;53.114;9.130;2023-03-01T02:17:30;10.32;;;9.15;;
5684;SDS011;2865;53.114;9.130;2023-03-01T02:21:08;11.13;;;8.37;;
5684;SDS011;2865;53.114;9.130;2023-03-01T02:22:41;9.27;;;8.38;;
5684;SDS011;2865;53.114;9.130;2023-03-01T02:25:12;12.50;;;9.50;;
5684;SDS011;2865;53.114;9.130;2023-03-01T02:27:53;11.82;;;9.65;;
5684;SDS011;2865;53.114;9.130;2023-03-01T02:30:18;11.02;;;9.80;;
5684;SDS011;2865;53.114;9.130;2023-03-01T02:32:43;12.10;;;9.80;;
5684;SDS011;2865;53.114;9.130;2023-03-01T02:35:10;9.47;;;8.57;;
5684;SDS011;2865;53.114;9.130;2023-03-01T02:37:34;15.27;;;9.80;;
5684;SDS011;2865;53.114;9.130;2023-03-01T02:40:01;11.40;;;10.20;;
5684;SDS011;2865;53.114;9.130;2023-03-01T02:42:28;10.23;;;9.20;;
5684;SDS011;2865;53.114;9.130;2023-03-01T02:44:52;13.13;;;10.07;;
5684;SDS011;2865;53.114;9.130;2023-03-01T02:47:17;10.93;;;9.93;;
5684;SDS011;2865;53.114;9.130;2023-03-01T02:49:42;12.03;;;9.27;;
5684;SDS011;2865;53.114;9.130;2023-03-01T02:52:14;12.13;;;8.73;;
5684;SDS011;2865;53.114;9.130;2023-03-01T02:54:39;9.80;;;8.60;;
5684;SDS011;2865;53.114;9.130;2023-03-01T02:57:02;10.05;;;8.93;;
5684;SDS011;2865;53.114;9.130;2023-03-01T02:59:29;8.87;;;8.03;;
5684;SDS011;2865;53.114;9.130;2023-03-01T03:01:52;9.70;;;8.50;;
5684;SDS011;2865;53.114;9.130;2023-03-01T03:04:18;11.33;;;8.40;;
5684;SDS011;2865;53.114;9.130;2023-03-01T03:06:44;10.23;;;9.23;;
5684;SDS011;2865;53.114;9.130;2023-03-01T03:09:08;10.80;;;8.53;;
5684;SDS011;2865;53.114;9.130;2023-03-01T03:11:34;8.93;;;8.00;;
5684;SDS011;2865;53.114;9.130;2023-03-01T03:13:59;13.47;;;9.37;;
5684;SDS011;2865;53.114;9.130;2023-03-01T03:16:25;11.37;;;9.20;;
5684;SDS011;2865;53.114;9.130;2023-03-01T03:18:50;11.43;;;8.87;;
5684;SDS011;2865;53.114;9.130;2023-03-01T03:21:15;9.83;;;8.60;;
5684;SDS011;2865;53.114;9.130;2023-03-01T03:23:41;8.87;;;7.60;;
5684;SDS011;2865;53.114;9.130;2023-03-01T03:26:06;9.93;;;8.90;;
5684;SDS011;2865;53.114;9.130;2023-03-01T03:28:32;9.23;;;8.33;;
5684;SDS011;2865;53.114;9.130;2023-03-01T03:30:57;10.67;;;9.57;;
5684;SDS011;2865;53.114;9.130;2023-03-01T03:33:22;11.17;;;8.80;;
5684;SDS011;2865;53.114;9.130;2023-03-01T03:35:48;10.80;;;9.07;;
5684;SDS011;2865;53.114;9.130;2023-03-01T03:38:13;9.83;;;8.40;;
5684;SDS011;2865;53.114;9.130;2023-03-01T03:40:41;11.48;;;9.00;;
5684;SDS011;2865;53.114;9.130;2023-03-01T03:43:07;10.07;;;8.50;;
5684;SDS011;2865;53.114;9.130;2023-03-01T03:45:32;10.25;;;8.73;;
5684;SDS011;2865;53.114;9.130;2023-03-01T03:47:57;15.17;;;10.00;;
5684;SDS011;2865;53.114;9.130;2023-03-01T03:50:22;8.97;;;8.17;;
5684;SDS011;2865;53.114;9.130;2023-03-01T03:52:48;10.50;;;8.60;;
5684;SDS011;2865;53.114;9.130;2023-03-01T03:55:14;12.80;;;10.93;;
5684;SDS011;2865;53.114;9.130;2023-03-01T03:57:39;15.90;;;9.33;;
5684;SDS011;2865;53.114;9.130;2023-03-01T04:00:05;10.90;;;9.80;;
5684;SDS011;2865;53.114;9.130;2023-03-01T04:02:31;10.25;;;8.88;;
5684;SDS011;2865;53.114;9.130;2023-03-01T04:04:57;12.03;;;8.80;;
5684;SDS011;2865;53.114;9.130;2023-03-01T04:07:22;9.07;;;8.17;;
5684;SDS011;2865;53.114;9.130;2023-03-01T04:09:47;16.07;;;9.90;;
5684;SDS011;2865;53.114;9.130;2023-03-01T04:12:13;9.90;;;9.10;;
5684;SDS011;2865;53.114;9.130;2023-03-01T04:14:38;10.17;;;8.50;;
5684;SDS011;2865;53.114;9.130;2023-03-01T04:17:04;11.03;;;8.63;;
5684;SDS011;2865;53.114;9.130;2023-03-01T04:19:29;9.40;;;8.60;;
5684;SDS011;2865;53.114;9.130;2023-03-01T04:21:55;10.03;;;9.03;;
5684;SDS011;2865;53.114;9.130;2023-03-01T04:24:20;12.00;;;9.30;;
5684;SDS011;2865;53.114;9.130;2023-03-01T04:26:45;9.60;;;8.67;;
5684;SDS011;2865;53.114;9.130;2023-03-01T04:29:10;8.97;;;8.13;;
5684;SDS011;2865;53.114;9.130;2023-03-01T04:31:36;10.20;;;8.80;;
5684;SDS011;2865;53.114;9.130;2023-03-01T04:34:01;11.57;;;9.50;;
5684;SDS011;2865;53.114;9.130;2023-03-01T04:36:27;10.87;;;9.20;;
5684;SDS011;2865;53.114;9.130;2023-03-01T04:38:52;12.20;;;9.20;;
5684;SDS011;2865;53.114;9.130;2023-03-01T04:41:18;10.07;;;9.07;;
5684;SDS011;2865;53.114;9.130;2023-03-01T04:43:43;11.53;;;9.03;;
5684;SDS011;2865;53.114;9.130;2023-03-01T04:46:10;16.20;;;9.27;;
5684;SDS011;2865;53.114;9.130;2023-03-01T04:48:33;11.37;;;9.83;;
5684;SDS011;2865;53.114;9.130;2023-03-01T04:50:59;10.93;;;9.50;;
5684;SDS011;2865;53.114;9.130;2023-03-01T04:53:24;9.73;;;8.77;;
5684;SDS011;2865;53.114;9.130;2023-03-01T04:55:50;10.40;;;9.03;;
5684;SDS011;2865;53.114;9.130;2023-03-01T04:58:15;10.23;;;9.20;;
5684;SDS011;2865;53.114;9.130;2023-03-01T05:00:40;9.27;;;8.57;;
5684;SDS011;2865;53.114;9.130;2023-03-01T05:03:06;11.80;;;9.13;;
5684;SDS011;2865;53.114;9.130;2023-03-01T05:05:38;17.35;;;9.00;;
5684;SDS011;2865;53.114;9.130;2023-03-01T05:08:05;11.17;;;8.80;;
5684;SDS011;2865;53.114;9.130;2023-03-01T05:10:31;10.02;;;9.02;;
5684;SDS011;2865;53.114;9.130;2023-03-01T05:12:56;9.77;;;8.13;;
5684;SDS011;2865;53.114;9.130;2023-03-01T05:15:21;9.33;;;8.50;;
5684;SDS011;2865;53.114;9.130;2023-03-01T05:17:47;9.63;;;8.50;;
5684;SDS011;2865;53.114;9.130;2023-03-01T05:20:12;11.40;;;8.93;;
5684;SDS011;2865;53.114;9.130;2023-03-01T05:22:37;10.07;;;9.07;;
5684;SDS011;2865;53.114;9.130;2023-03-01T05:25:03;9.50;;;8.63;;
5684;SDS011;2865;53.114;9.130;2023-03-01T05:27:29;10.20;;;9.30;;
5684;SDS011;2865;53.114;9.130;2023-03-01T05:29:54;9.73;;;8.83;;
5684;SDS011;2865;53.114;9.130;2023-03-01T05:32:19;11.47;;;10.20;;
5684;SDS011;2865;53.114;9.130;2023-03-01T05:34:45;11.50;;;9.53;;
5684;SDS011;2865;53.114;9.130;2023-03-01T05:37:10;11.60;;;9.10;;
5684;SDS011;2865;53.114;9.130;2023-03-01T05:39:36;12.43;;;9.17;;
5684;SDS011;2865;53.114;9.130;2023-03-01T05:42:01;9.93;;;8.57;;
5684;SDS011;2865;53.114;9.130;2023-03-01T05:44:27;9.10;;;8.20;;
5684;SDS011;2865;53.114;9.130;2023-03-01T05:46:52;9.90;;;8.90;;
5684;SDS011;2865;53.114;9.130;2023-03-01T05:49:17;10.30;;;9.27;;
5684;SDS011;2865;53.114;9.130;2023-03-01T05:51:43;10.77;;;8.93;;
5684;SDS011;2865;53.114;9.130;2023-03-01T05:54:09;11.20;;;9.13;;
5684;SDS011;2865;53.114;9.130;2023-03-01T05:56:34;23.75;;;10.25;;
5684;SDS011;2865;53.114;9.130;2023-03-01T05:59:00;9.93;;;8.70;;
5684;SDS011;2865;53.114;9.130;2023-03-01T06:01:25;9.37;;;8.23;;
5684;SDS011;2865;53.114;9.130;2023-03-01T06:03:51;9.07;;;8.17;;
5684;SDS011;2865;53.114;9.130;2023-03-01T06:06:16;11.03;;;8.83;;
5684;SDS011;2865;53.114;9.130;2023-03-01T06:08:41;8.47;;;7.53;;
5684;SDS011;2865;53.114;9.130;2023-03-01T06:11:07;9.47;;;8.53;;
5684;SDS011;2865;53.114;9.130;2023-03-01T06:13:32;13.87;;;8.43;;
5684;SDS011;2865;53.114;9.130;2023-03-01T06:15:57;7.97;;;7.17;;
5684;SDS011;2865;53.114;9.130;2023-03-01T06:18:23;11.17;;;8.70;;
5684;SDS011;2865;53.114;9.130;2023-03-01T06:20:53;10.27;;;7.90;;
5684;SDS011;2865;53.114;9.130;2023-03-01T06:23:18;8.60;;;7.93;;
5684;SDS011;2865;53.114;9.130;2023-03-01T06:25:43;9.07;;;8.23;;
5684;SDS011;2865;53.114;9.130;2023-03-01T06:28:08;8.80;;;7.97;;
5684;SDS011;2865;53.114;9.130;2023-03-01T06:30:34;8.87;;;8.00;;
5684;SDS011;2865;53.114;9.130;2023-03-01T06:33:00;10.33;;;8.07;;
5684;SDS011;2865;53.114;9.130;2023-03-01T06:35:26;10.75;;;9.45;;
5684;SDS011;2865;53.114;9.130;2023-03-01T06:37:51;9.77;;;8.87;;
5684;SDS011;2865;53.114;9.130;2023-03-01T06:40:17;9.93;;;9.00;;
5684;SDS011;2865;53.114;9.130;2023-03-01T06:42:43;10.77;;;8.97;;
5684;SDS011;2865;53.114;9.130;2023-03-01T06:45:08;16.77;;;9.57;;
5684;SDS011;2865;53.114;9.130;2023-03-01T06:47:34;11.40;;;10.30;;
5684;SDS011;2865;53.114;9.130;2023-03-01T06:50:00;13.03;;;10.70;;
5684;SDS011;2865;53.114;9.130;2023-03-01T06:52:25;11.93;;;10.63;;
5684;SDS011;2865;53.114;9.130;2023-03-01T06:54:50;12.70;;;10.43;;
5684;SDS011;2865;53.114;9.130;2023-03-01T06:57:16;10.90;;;9.80;;
5684;SDS011;2865;53.114;9.130;2023-03-01T06:59:41;9.80;;;8.80;;
5684;SDS011;2865;53.114;9.130;2023-03-01T07:02:09;9.83;;;8.90;;
5684;SDS011;2865;53.114;9.130;2023-03-01T07:04:32;12.83;;;8.60;;
5684;SDS011;2865;53.114;9.130;2023-03-01T07:06:57;10.00;;;9.10;;
5684;SDS011;2865;53.114;9.130;2023-03-01T07:09:23;8.50;;;7.70;;
5684;SDS011;2865;53.114;9.130;2023-03-01T07:11:48;9.40;;;8.50;;
5684;SDS011;2865;53.114;9.130;2023-03-01T07:14:13;8.80;;;7.80;;
5684;SDS011;2865;53.114;9.130;2023-03-01T07:16:39;14.77;;;8.00;;
5684;SDS011;2865;53.114;9.130;2023-03-01T07:19:04;9.20;;;8.40;;
5684;SDS011;2865;53.114;9.130;2023-03-01T07:21:29;10.80;;;9.80;;
5684;SDS011;2865;53.114;9.130;2023-03-01T07:23:55;8.87;;;8.03;;
5684;SDS011;2865;53.114;9.130;2023-03-01T07:26:20;9.63;;;8.40;;
5684;SDS011;2865;53.114;9.130;2023-03-01T07:28:45;12.90;;;8.40;;
5684;SDS011;2865;53.114;9.130;2023-03-01T07:31:11;8.43;;;7.73;;
5684;SDS011;2865;53.114;9.130;2023-03-01T07:33:36;9.20;;;8.23;;
5684;SDS011;2865;53.114;9.130;2023-03-01T07:36:03;7.60;;;6.70;;
5684;SDS011;2865;53.114;9.130;2023-03-01T07:38:28;9.20;;;8.33;;
5684;SDS011;2865;53.114;9.130;2023-03-01T07:40:53;8.40;;;7.63;;
5684;SDS011;2865;53.114;9.130;2023-03-01T07:43:18;9.57;;;7.80;;
5684;SDS011;2865;53.114;9.130;2023-03-01T07:45:43;10.40;;;7.73;;
5684;SDS011;2865;53.114;9.130;2023-03-01T07:48:09;8.60;;;7.27;;
5684;SDS011;2865;53.114;9.130;2023-03-01T07:50:34;8.23;;;7.03;;
5684;SDS011;2865;53.114;9.130;2023-03-01T07:53:00;10.13;;;7.13;;
5684;SDS011;2865;53.114;9.130;2023-03-01T07:55:25;8.10;;;7.07;;
5684;SDS011;2865;53.114;9.130;2023-03-01T07:57:50;8.57;;;7.50;;
5684;SDS011;2865;53.114;9.130;2023-03-01T08:00:16;9.53;;;6.73;;
5684;SDS011;2865;53.114;9.130;2023-03-01T08:02:42;12.20;;;6.40;;
5684;SDS011;2865;53.114;9.130;2023-03-01T08:05:08;11.30;;;7.23;;
5684;SDS011;2865;53.114;9.130;2023-03-01T08:07:33;10.02;;;7.90;;
5684;SDS011;2865;53.114;9.130;2023-03-01T08:09:59;9.13;;;7.60;;
5684;SDS011;2865;53.114;9.130;2023-03-01T08:12:24;10.80;;;7.80;;
5684;SDS011;2865;53.114;9.130;2023-03-01T08:14:50;9.50;;;8.23;;
5684;SDS011;2865;53.114;9.130;2023-03-01T08:17:15;8.37;;;7.57;;
5684;SDS011;2865;53.114;9.130;2023-03-01T08:19:40;9.83;;;8.60;;
5684;SDS011;2865;53.114;9.130;2023-03-01T08:22:06;9.77;;;8.50;;
5684;SDS011;2865;53.114;9.130;2023-03-01T08:24:31;9.93;;;7.37;;
5684;SDS011;2865;53.114;9.130;2023-03-01T08:26:56;10.43;;;7.90;;
5684;SDS011;2865;53.114;9.130;2023-03-01T08:29:22;9.40;;;7.90;;
5684;SDS011;2865;53.114;9.130;2023-03-01T08:31:47;8.43;;;6.90;;
5684;SDS011;2865;53.114;9.130;2023-03-01T08:34:14;8.37;;;7.03;;
5684;SDS011;2865;53.114;9.130;2023-03-01T08:36:39;12.03;;;8.80;;
5684;SDS011;2865;53.114;9.130;2023-03-01T08:39:04;8.30;;;7.23;;
5684;SDS011;2865;53.114;9.130;2023-03-01T08:41:29;7.63;;;6.93;;
5684;SDS011;2865;53.114;9.130;2023-03-01T08:43:55;8.37;;;7.17;;
5684;SDS011;2865;53.114;9.130;2023-03-01T08:46:20;9.37;;;8.47;;
5684;SDS011;2865;53.114;9.130;2023-03-01T08:48:46;7.70;;;7.10;;
5684;SDS011;2865;53.114;9.130;2023-03-01T08:51:13;8.40;;;6.53;;
5684;SDS011;2865;53.114;9.130;2023-03-01T08:53:37;7.43;;;6.73;;
5684;SDS011;2865;53.114;9.130;2023-03-01T08:56:04;8.07;;;7.27;;
5684;SDS011;2865;53.114;9.130;2023-03-01T08:58:29;7.90;;;7.20;;
5684;SDS011;2865;53.114;9.130;2023-03-01T09:00:54;7.17;;;6.57;;
5684;SDS011;2865;53.114;9.130;2023-03-01T09:03:20;7.17;;;6.47;;
5684;SDS011;2865;53.114;9.130;2023-03-01T09:05:45;7.20;;;6.50;;
5684;SDS011;2865;53.114;9.130;2023-03-01T09:08:11;8.23;;;6.97;;
5684;SDS011;2865;53.114;9.130;2023-03-01T09:10:37;8.67;;;6.60;;
5684;SDS011;2865;53.114;9.130;2023-03-01T09:13:02;8.80;;;6.63;;
5684;SDS011;2865;53.114;9.130;2023-03-01T09:15:27;8.07;;;6.90;;
5684;SDS011;2865;53.114;9.130;2023-03-01T09:17:53;9.80;;;7.67;;
5684;SDS011;2865;53.114;9.130;2023-03-01T09:20:18;6.93;;;6.27;;
5684;SDS011;2865;53.114;9.130;2023-03-01T09:22:43;7.83;;;6.90;;
5684;SDS011;2865;53.114;9.130;2023-03-01T09:25:09;7.00;;;6.40;;
5684;SDS011;2865;53.114;9.130;2023-03-01T09:27:34;8.23;;;7.23;;
5684;SDS011;2865;53.114;9.130;2023-03-01T09:29:59;7.03;;;6.43;;
5684;SDS011;2865;53.114;9.130;2023-03-01T09:32:25;7.87;;;7.07;;
5684;SDS011;2865;53.114;9.130;2023-03-01T09:34:50;7.50;;;6.57;;
5684;SDS011;2865;53.114;9.130;2023-03-01T09:37:22;8.13;;;6.63;;
5684;SDS011;2865;53.114;9.130;2023-03-01T09:39:47;8.40;;;7.50;;
5684;SDS011;2865;53.114;9.130;2023-03-01T09:42:13;8.87;;;7.07;;
5684;SDS011;2865;53.114;9.130;2023-03-01T09:44:42;8.10;;;7.27;;
5684;SDS011;2865;53.114;9.130;2023-03-01T09:47:08;9.50;;;7.70;;
5684;SDS011;2865;53.114;9.130;2023-03-01T09:49:31;10.30;;;6.47;;
5684;SDS011;2865;53.114;9.130;2023-03-01T09:51:57;8.03;;;7.33;;
5684;SDS011;2865;53.114;9.130;2023-03-01T09:54:39;7.47;;;6.67;;
5684;SDS011;2865;53.114;9.130;2023-03-01T09:57:12;8.03;;;7.23;;
5684;SDS011;2865;53.114;9.130;2023-03-01T09:59:56;7.40;;;6.63;;
5684;SDS011;2865;53.114;9.130;2023-03-01T10:02:24;7.00;;;5.90;;
5684;SDS011;2865;53.114;9.130;2023-03-01T10:04:50;8.63;;;7.30;;
5684;SDS011;2865;53.114;9.130;2023-03-01T10:07:21;11.33;;;7.90;;
5684;SDS011;2865;53.114;9.130;2023-03-01T10:09:56;9.97;;;6.87;;
5684;SDS011;2865;53.114;9.130;2023-03-01T10:12:23;9.30;;;7.23;;
5684;SDS011;2865;53.114;9.130;2023-03-01T10:14:56;7.97;;;6.57;;
5684;SDS011;2865;53.114;9.130;2023-03-01T10:17:27;13.90;;;7.10;;
5684;SDS011;2865;53.114;9.130;2023-03-01T10:19:51;10.60;;;6.83;;
5684;SDS011;2865;53.114;9.130;2023-03-01T10:22:18;9.47;;;6.03;;
5684;SDS011;2865;53.114;9.130;2023-03-01T10:24:43;26.87;;;7.07;;
5684;SDS011;2865;53.114;9.130;2023-03-01T10:27:12;7.27;;;6.57;;
5684;SDS011;2865;53.114;9.130;2023-03-01T10:29:42;9.50;;;6.80;;
5684;SDS011;2865;53.114;9.130;2023-03-01T10:32:04;7.23;;;6.27;;
5684;SDS011;2865;53.114;9.130;2023-03-01T10:34:31;6.77;;;6.17;;
5684;SDS011;2865;53.114;9.130;2023-03-01T10:36:56;7.43;;;6.40;;
5684;SDS011;2865;53.114;9.130;2023-03-01T10:39:23;11.60;;;6.73;;
5684;SDS011;2865;53.114;9.130;2023-03-01T10:41:54;7.30;;;6.23;;
5684;SDS011;2865;53.114;9.130;2023-03-01T10:46:59;7.30;;;6.60;;
5684;SDS011;2865;53.114;9.130;2023-03-01T10:49:25;6.77;;;6.07;;
5684;SDS011;2865;53.114;9.130;2023-03-01T10:51:51;6.80;;;6.20;;
5684;SDS011;2865;53.114;9.130;2023-03-01T10:54:18;8.20;;;6.73;;
5684;SDS011;2865;53.114;9.130;2023-03-01T10:56:47;6.83;;;6.00;;
5684;SDS011;2865;53.114;9.130;2023-03-01T10:59:19;7.80;;;6.47;;
5684;SDS011;2865;53.114;9.130;2023-03-01T11:01:36;8.60;;;6.83;;
5684;SDS011;2865;53.114;9.130;2023-03-01T11:04:10;7.03;;;6.33;;
5684;SDS011;2865;53.114;9.130;2023-03-01T11:06:34;8.07;;;7.27;;
5684;SDS011;2865;53.114;9.130;2023-03-01T11:09:12;8.63;;;7.17;;
5684;SDS011;2865;53.114;9.130;2023-03-01T11:11:31;9.63;;;7.27;;
5684;SDS011;2865;53.114;9.130;2023-03-01T11:14:05;8.63;;;7.37;;
5684;SDS011;2865;53.114;9.130;2023-03-01T11:16:33;7.70;;;7.00;;
5684;SDS011;2865;53.114;9.130;2023-03-01T11:18:58;7.63;;;6.90;;
5684;SDS011;2865;53.114;9.130;2023-03-01T11:21:24;11.83;;;8.10;;
5684;SDS011;2865;53.114;9.130;2023-03-01T11:23:49;9.40;;;6.90;;
5684;SDS011;2865;53.114;9.130;2023-03-01T11:26:14;8.67;;;7.77;;
5684;SDS011;2865;53.114;9.130;2023-03-01T11:28:40;8.77;;;7.17;;
5684;SDS011;2865;53.114;9.130;2023-03-01T11:31:07;11.97;;;9.20;;
5684;SDS011;2865;53.114;9.130;2023-03-01T11:33:37;11.20;;;7.27;;
5684;SDS011;2865;53.114;9.130;2023-03-01T11:36:27;8.20;;;6.80;;
5684;SDS011;2865;53.114;9.130;2023-03-01T11:38:47;9.47;;;7.30;;
5684;SDS011;2865;53.114;9.130;2023-03-01T11:41:15;9.80;;;7.50;;
5684;SDS011;2865;53.114;9.130;2023-03-01T11:43:47;12.13;;;7.97;;
5684;SDS011;2865;53.114;9.130;2023-03-01T11:46:37;9.37;;;8.20;;
5684;SDS011;2865;53.114;9.130;2023-03-01T11:49:12;9.30;;;7.60;;
5684;SDS011;2865;53.114;9.130;2023-03-01T11:51:58;9.97;;;8.40;;
5684;SDS011;2865;53.114;9.130;2023-03-01T11:54:25;8.93;;;8.03;;
5684;SDS011;2865;53.114;9.130;2023-03-01T11:56:57;8.20;;;7.40;;
5684;SDS011;2865;53.114;9.130;2023-03-01T11:59:30;12.13;;;8.17;;
5684;SDS011;2865;53.114;9.130;2023-03-01T12:02:10;9.57;;;8.00;;
5684;SDS011;2865;53.114;9.130;2023-03-01T12:04:50;8.60;;;7.60;;
5684;SDS011;2865;53.114;9.130;2023-03-01T12:07:34;9.20;;;7.30;;
5684;SDS011;2865;53.114;9.130;2023-03-01T12:13:23;11.87;;;8.40;;
5684;SDS011;2865;53.114;9.130;2023-03-01T12:15:43;8.80;;;7.90;;
5684;SDS011;2865;53.114;9.130;2023-03-01T12:19:21;9.57;;;8.23;;
5684;SDS011;2865;53.114;9.130;2023-03-01T12:23:51;8.90;;;7.67;;
5684;SDS011;2865;53.114;9.130;2023-03-01T12:26:23;8.93;;;8.03;;
5684;SDS011;2865;53.114;9.130;2023-03-01T12:29:34;12.10;;;9.10;;
5684;SDS011;2865;53.114;9.130;2023-03-01T12:32:00;9.03;;;8.00;;
5684;SDS011;2865;53.114;9.130;2023-03-01T12:34:42;9.33;;;8.30;;
5684;SDS011;2865;53.114;9.130;2023-03-01T12:39:52;8.73;;;7.63;;
5684;SDS011;2865;53.114;9.130;2023-03-01T12:48:14;9.50;;;8.50;;
5684;SDS011;2865;53.114;9.130;2023-03-01T12:50:41;8.93;;;8.03;;
5684;SDS011;2865;53.114;9.130;2023-03-01T12:53:07;8.70;;;7.77;;
5684;SDS011;2865;53.114;9.130;2023-03-01T12:55:33;10.60;;;8.93;;
5684;SDS011;2865;53.114;9.130;2023-03-01T12:58:09;9.00;;;7.13;;
5684;SDS011;2865;53.114;9.130;2023-03-01T13:00:45;8.60;;;7.70;;
5684;SDS011;2865;53.114;9.130;2023-03-01T13:03:13;11.60;;;8.37;;
5684;SDS011;2865;53.114;9.130;2023-03-01T13:05:41;9.90;;;8.50;;
5684;SDS011;2865;53.114;9.130;2023-03-01T13:08:07;9.50;;;7.77;;
5684;SDS011;2865;53.114;9.130;2023-03-01T13:13:12;9.77;;;7.77;;
5684;SDS011;2865;53.114;9.130;2023-03-01T13:15:37;8.33;;;7.50;;
5684;SDS011;2865;53.114;9.130;2023-03-01T13:18:27;11.40;;;8.23;;
5684;SDS011;2865;53.114;9.130;2023-03-01T13:20:30;10.47;;;7.70;;
5684;SDS011;2865;53.114;9.130;2023-03-01T13:34:38;11.33;;;8.57;;
5684;SDS011;2865;53.114;9.130;2023-03-01T13:39:27;9.60;;;7.57;;
5684;SDS011;2865;53.114;9.130;2023-03-01T13:41:52;8.83;;;7.30;;
5684;SDS011;2865;53.114;9.130;2023-03-01T13:44:27;10.63;;;8.30;;
5684;SDS011;2865;53.114;9.130;2023-03-01T13:46:57;10.80;;;8.33;;
5684;SDS011;2865;53.114;9.130;2023-03-01T13:49:21;10.23;;;7.77;;
5684;SDS011;2865;53.114;9.130;2023-03-01T13:51:47;11.63;;;8.60;;
5684;SDS011;2865;53.114;9.130;2023-03-01T13:54:12;9.77;;;7.67;;
5684;SDS011;2865;53.114;9.130;2023-03-01T13:56:37;13.87;;;8.10;;
5684;SDS011;2865;53.114;9.130;2023-03-01T13:59:12;12.40;;;8.27;;
5684;SDS011;2865;53.114;9.130;2023-03-01T14:01:32;8.63;;;7.60;;
5684;SDS011;2865;53.114;9.130;2023-03-01T14:03:56;9.17;;;8.17;;
5684;SDS011;2865;53.114;9.130;2023-03-01T14:06:24;11.80;;;8.83;;
5684;SDS011;2865;53.114;9.130;2023-03-01T14:08:49;10.33;;;8.13;;
5684;SDS011;2865;53.114;9.130;2023-03-01T14:11:20;11.80;;;8.63;;
5684;SDS011;2865;53.114;9.130;2023-03-01T14:19:12;9.00;;;7.37;;
5684;SDS011;2865;53.114;9.130;2023-03-01T14:21:42;9.63;;;8.53;;
5684;SDS011;2865;53.114;9.130;2023-03-01T14:24:15;13.90;;;8.67;;
5684;SDS011;2865;53.114;9.130;2023-03-01T14:26:40;11.13;;;9.30;;
5684;SDS011;2865;53.114;9.130;2023-03-01T14:29:05;9.07;;;8.17;;
5684;SDS011;2865;53.114;9.130;2023-03-01T14:31:32;10.50;;;8.07;;
5684;SDS011;2865;53.114;9.130;2023-03-01T14:33:56;12.17;;;8.83;;
5684;SDS011;2865;53.114;9.130;2023-03-01T14:36:26;9.30;;;8.27;;
5684;SDS011;2865;53.114;9.130;2023-03-01T14:38:51;12.93;;;9.83;;
5684;SDS011;2865;53.114;9.130;2023-03-01T14:41:17;10.17;;;9.07;;
5684;SDS011;2865;53.114;9.130;2023-03-01T14:43:46;10.30;;;9.20;;
5684;SDS011;2865;53.114;9.130;2023-03-01T14:46:16;11.10;;;8.57;;
5684;SDS011;2865;53.114;9.130;2023-03-01T14:48:42;10.93;;;9.50;;
5684;SDS011;2865;53.114;9.130;2023-03-01T14:51:07;11.27;;;9.50;;
5684;SDS011;2865;53.114;9.130;2023-03-01T14:53:33;19.33;;;11.63;;
5684;SDS011;2865;53.114;9.130;2023-03-01T14:55:59;12.40;;;10.77;;
5684;SDS011;2865;53.114;9.130;2023-03-01T14:58:25;11.97;;;10.00;;
5684;SDS011;2865;53.114;9.130;2023-03-01T15:00:59;13.03;;;9.43;;
5684;SDS011;2865;53.114;9.130;2023-03-01T15:03:27;11.90;;;10.60;;
5684;SDS011;2865;53.114;9.130;2023-03-01T15:05:59;15.33;;;10.13;;
5684;SDS011;2865;53.114;9.130;2023-03-01T15:08:24;13.10;;;10.10;;
5684;SDS011;2865;53.114;9.130;2023-03-01T15:10:57;11.70;;;9.90;;
5684;SDS011;2865;53.114;9.130;2023-03-01T15:13:23;11.23;;;9.33;;
5684;SDS011;2865;53.114;9.130;2023-03-01T15:15:47;13.33;;;10.10;;
5684;SDS011;2865;53.114;9.130;2023-03-01T15:18:16;11.80;;;9.50;;
5684;SDS011;2865;53.114;9.130;2023-03-01T15:20:41;13.50;;;8.80;;
5684;SDS011;2865;53.114;9.130;2023-03-01T15:23:12;13.10;;;10.33;;
5684;SDS011;2865;53.114;9.130;2023-03-01T15:25:32;11.80;;;9.93;;
5684;SDS011;2865;53.114;9.130;2023-03-01T15:27:58;10.27;;;9.17;;
5684;SDS011;2865;53.114;9.130;2023-03-01T15:30:25;11.73;;;8.93;;
5684;SDS011;2865;53.114;9.130;2023-03-01T15:32:49;11.03;;;9.37;;
5684;SDS011;2865;53.114;9.130;2023-03-01T15:37:52;11.00;;;9.37;;
5684;SDS011;2865;53.114;9.130;2023-03-01T15:40:19;11.03;;;9.43;;
5684;SDS011;2865;53.114;9.130;2023-03-01T15:42:48;14.83;;;10.13;;
5684;SDS011;2865;53.114;9.130;2023-03-01T15:45:22;14.53;;;9.57;;
5684;SDS011;2865;53.114;9.130;2023-03-01T15:47:49;13.50;;;9.80;;